Time;durP1;ratioP1;P1;durP2;ratioP2;P2;SDS_P1;SDS_P2;PMS_P1;PMS_P2;Temp;Humidity;BMP_temperature;BMP_pressure;BME280_temperature;BME280_humidity;BME280_pressure;Samples;Min_cycle;Max_cycle;Signal;HPM_P1;HPM_P2
2023/08/03 00:00:16;;;;;;;5.20;4.70;;;;;;;23.27;56.26;100454.22;5009716;28;20391;-74
2023/08/03 00:02:41;;;;;;;5.20;4.70;;;;;;;23.33;56.37;100462.38;5012140;28;20380;-74
2023/08/03 00:05:07;;;;;;;5.10;4.60;;;;;;;23.35;56.50;100462.91;5013593;28;20391;-74
2023/08/03 00:07:33;;;;;;;5.93;4.80;;;;;;;23.20;57.00;100450.13;5013756;28;20836;-74
2023/08/03 00:09:59;;;;;;;5.47;4.72;;;;;;;23.07;57.28;100454.09;5014046;28;20384;-74
2023/08/03 00:12:25;;;;;;;5.30;4.47;;;;;;;23.03;57.51;100461.03;5014096;28;20416;-74
2023/08/03 00:14:51;;;;;;;4.93;4.53;;;;;;;23.12;57.42;100456.00;5013914;28;20390;-74
2023/08/03 00:17:17;;;;;;;5.13;4.63;;;;;;;23.08;57.71;100464.66;5014055;28;20376;-74
2023/08/03 00:19:42;;;;;;;4.70;4.30;;;;;;;23.15;57.30;100466.31;5014292;28;20391;-74
2023/08/03 00:22:09;;;;;;;5.88;4.90;;;;;;;23.06;57.53;100471.38;5012342;28;20391;-74
2023/08/03 00:24:34;;;;;;;5.10;4.70;;;;;;;23.09;57.65;100471.69;5021568;28;20424;-74
2023/08/03 00:27:00;;;;;;;5.00;4.60;;;;;;;23.17;57.16;100466.84;5004053;28;20908;-74
2023/08/03 00:29:25;;;;;;;6.13;4.50;;;;;;;23.06;57.45;100472.19;4996561;28;20504;-74
2023/08/03 00:31:51;;;;;;;5.83;4.80;;;;;;;22.92;58.16;100468.25;5003926;28;20423;-74
2023/08/03 00:34:16;;;;;;;6.40;4.93;;;;;;;22.96;57.69;100466.69;5004494;28;20414;-74
2023/08/03 00:36:42;;;;;;;5.30;4.80;;;;;;;23.06;57.60;100461.38;5002745;28;20396;-74
2023/08/03 00:39:07;;;;;;;5.70;5.10;;;;;;;23.20;57.06;100455.53;5001841;28;20428;-73
2023/08/03 00:41:33;;;;;;;5.50;4.97;;;;;;;23.18;56.91;100463.91;5001924;28;20714;-73
2023/08/03 00:43:58;;;;;;;5.20;4.70;;;;;;;23.19;57.10;100460.13;5009827;28;20408;-74
2023/08/03 00:46:24;;;;;;;5.53;5.03;;;;;;;23.27;56.63;100461.53;5011780;28;20698;-73
2023/08/03 00:48:49;;;;;;;6.00;5.40;;;;;;;23.19;57.08;100459.28;5012241;28;20391;-74
2023/08/03 00:51:15;;;;;;;5.40;4.90;;;;;;;23.07;57.36;100448.69;5013355;28;20837;-74
2023/08/03 00:53:44;;;;;;;5.10;4.60;;;;;;;22.96;58.00;100455.03;5013371;28;20404;-74
2023/08/03 00:56:09;;;;;;;5.35;4.85;;;;;;;22.87;58.45;100455.53;5012986;28;20463;-74
2023/08/03 00:58:35;;;;;;;5.73;4.90;;;;;;;22.88;58.45;100461.75;5013312;28;20487;-74
2023/08/03 01:01:00;;;;;;;5.85;5.28;;;;;;;22.70;58.88;100452.13;5013290;28;20395;-74
2023/08/03 01:03:26;;;;;;;5.50;5.00;;;;;;;22.73;59.10;100458.94;5013389;28;20400;-74
2023/08/03 01:05:52;;;;;;;5.35;4.85;;;;;;;22.65;59.22;100463.72;5013247;28;20410;-74
2023/08/03 01:08:17;;;;;;;5.53;5.03;;;;;;;22.40;60.24;100458.91;5013064;28;20458;-74
2023/08/03 01:10:43;;;;;;;5.75;5.15;;;;;;;22.29;60.70;100467.94;5013322;28;20388;-74
2023/08/03 01:13:08;;;;;;;6.23;5.07;;;;;;;22.26;60.57;100461.19;5012413;28;20420;-74
2023/08/03 01:15:34;;;;;;;6.27;5.23;;;;;;;22.29;60.74;100463.38;5012829;28;20781;-74
2023/08/03 01:17:59;;;;;;;6.80;4.63;;;;;;;22.19;61.16;100468.63;5012941;28;20907;-74
2023/08/03 01:20:27;;;;;;;5.67;4.97;;;;;;;22.23;60.87;100466.25;5012977;28;20384;-74
2023/08/03 01:22:52;;;;;;;5.13;4.63;;;;;;;22.04;61.42;100468.44;5013063;28;20451;-74
2023/08/03 01:25:18;;;;;;;5.38;4.88;;;;;;;21.99;61.42;100463.03;5012289;28;20879;-74
2023/08/03 01:27:47;;;;;;;5.43;4.93;;;;;;;21.85;61.92;100470.66;5013753;28;20384;-74
2023/08/03 01:30:12;;;;;;;5.25;4.75;;;;;;;21.73;62.37;100470.78;5012511;28;20404;-74
2023/08/03 01:32:38;;;;;;;5.37;4.87;;;;;;;21.61;62.74;100461.97;5012785;28;20907;-74
2023/08/03 01:35:06;;;;;;;5.70;4.85;;;;;;;21.90;61.59;100462.66;5012553;28;20380;-75
2023/08/03 01:37:34;;;;;;;5.50;5.00;;;;;;;22.10;60.89;100456.66;5012497;28;20435;-75
2023/08/03 01:40:00;;;;;;;5.53;4.97;;;;;;;22.12;60.69;100468.81;5011936;28;20383;-75
2023/08/03 01:42:25;;;;;;;5.60;5.10;;;;;;;22.24;60.05;100462.50;5012340;28;20866;-75
2023/08/03 01:44:51;;;;;;;6.40;4.88;;;;;;;22.45;59.66;100466.22;5012409;28;20449;-75
2023/08/03 01:47:16;;;;;;;5.93;4.90;;;;;;;22.56;59.20;100472.53;5012464;28;20384;-74
2023/08/03 01:49:42;;;;;;;5.00;4.60;;;;;;;22.39;59.39;100469.97;5012407;28;20384;-74
2023/08/03 01:52:07;;;;;;;5.70;4.60;;;;;;;22.29;59.58;100479.59;5012268;28;20404;-75
2023/08/03 01:54:33;;;;;;;5.60;4.53;;;;;;;22.08;60.25;100470.41;5011916;28;20474;-74
2023/08/03 01:56:58;;;;;;;5.50;5.00;;;;;;;22.15;60.05;100472.94;5012305;28;20395;-74
2023/08/03 01:59:24;;;;;;;5.30;4.80;;;;;;;22.30;59.66;100472.28;5012107;28;20384;-75
2023/08/03 02:01:49;;;;;;;6.03;5.43;;;;;;;22.46;58.98;100473.28;5012181;28;20368;-75
2023/08/03 02:04:15;;;;;;;5.38;4.88;;;;;;;22.50;58.68;100468.97;5012184;28;20916;-75
2023/08/03 02:06:40;;;;;;;5.87;5.37;;;;;;;22.48;58.66;100460.31;5012042;28;20392;-75
2023/08/03 02:09:06;;;;;;;5.60;5.10;;;;;;;22.59;58.19;100466.63;5011911;28;20445;-75
2023/08/03 02:11:35;;;;;;;5.27;4.77;;;;;;;22.78;57.61;100461.66;5011872;28;20376;-75
2023/08/03 02:14:01;;;;;;;5.30;4.80;;;;;;;22.89;57.23;100466.09;5012005;28;20381;-75
2023/08/03 02:16:26;;;;;;;5.10;4.60;;;;;;;22.91;57.08;100462.03;5011918;28;20391;-75
2023/08/03 02:18:52;;;;;;;7.30;4.80;;;;;;;22.97;56.95;100452.09;5011952;28;20403;-75
2023/08/03 02:21:17;;;;;;;5.27;4.80;;;;;;;23.03;56.50;100461.03;5012119;28;20380;-75
2023/08/03 02:23:43;;;;;;;5.10;4.53;;;;;;;23.00;56.52;100459.69;5011464;28;20856;-75
2023/08/03 02:26:08;;;;;;;5.20;4.70;;;;;;;22.87;57.10;100463.66;5010809;28;20384;-75
2023/08/03 02:28:34;;;;;;;5.70;5.03;;;;;;;22.91;57.17;100461.25;5011524;28;20860;-75
2023/08/03 02:30:59;;;;;;;5.43;4.93;;;;;;;22.88;57.05;100459.03;5011582;28;20821;-75
2023/08/03 02:33:25;;;;;;;5.07;4.57;;;;;;;23.01;56.59;100472.13;5011538;28;20473;-75
2023/08/03 02:35:50;;;;;;;5.53;5.03;;;;;;;23.09;56.57;100466.28;5010635;28;20717;-74
2023/08/03 02:38:17;;;;;;;5.63;4.80;;;;;;;23.09;56.26;100473.56;5011311;28;20399;-74
2023/08/03 02:40:42;;;;;;;5.40;4.90;;;;;;;23.08;56.47;100466.53;5011471;28;20388;-75
2023/08/03 02:43:08;;;;;;;8.13;4.73;;;;;;;23.13;56.04;100458.44;5011526;28;20887;-75
2023/08/03 02:45:33;;;;;;;5.60;4.97;;;;;;;23.18;56.12;100463.91;5011428;28;21547;-75
2023/08/03 02:47:59;;;;;;;5.30;4.80;;;;;;;23.17;56.08;100456.84;5011301;28;20388;-75
2023/08/03 02:50:24;;;;;;;5.43;4.90;;;;;;;23.20;55.88;100453.63;5011212;28;20721;-75
2023/08/03 02:52:50;;;;;;;5.80;5.00;;;;;;;23.24;55.68;100456.63;5010898;28;20447;-75
2023/08/03 02:55:16;;;;;;;5.50;5.00;;;;;;;23.22;55.80;100462.28;5010957;28;20388;-74
2023/08/03 02:57:42;;;;;;;5.30;4.80;;;;;;;23.21;55.76;100463.38;5011987;28;20466;-75
2023/08/03 03:00:09;;;;;;;5.85;5.25;;;;;;;23.01;56.44;100480.25;5011217;28;20420;-75
2023/08/03 03:02:36;;;;;;;5.90;5.07;;;;;;;22.89;56.88;100476.91;5011266;28;20376;-74
2023/08/03 03:05:02;;;;;;;6.10;5.53;;;;;;;22.83;57.12;100486.03;5011412;28;20384;-74
2023/08/03 03:07:27;;;;;;;5.65;5.10;;;;;;;22.81;57.32;100471.97;5010924;28;20792;-75
2023/08/03 03:09:53;;;;;;;6.07;5.47;;;;;;;22.80;57.56;100470.34;5011219;28;20895;-75
2023/08/03 03:12:18;;;;;;;6.03;5.43;;;;;;;22.87;57.30;100473.66;5011839;28;20408;-75
2023/08/03 03:14:44;;;;;;;6.57;5.53;;;;;;;22.89;57.39;100475.00;5013032;28;20388;-75
2023/08/03 03:17:09;;;;;;;6.60;5.45;;;;;;;22.79;57.33;100479.50;5011354;28;20390;-75
2023/08/03 03:19:35;;;;;;;6.17;5.20;;;;;;;22.69;57.75;100489.16;5011108;28;20430;-75
2023/08/03 03:22:00;;;;;;;7.00;5.37;;;;;;;22.58;58.13;100492.00;5010667;28;20662;-75
2023/08/03 03:24:26;;;;;;;6.43;5.82;;;;;;;22.53;58.46;100498.19;5010881;28;20391;-75
2023/08/03 03:26:51;;;;;;;6.20;5.60;;;;;;;22.53;58.80;100501.69;5010918;28;20391;-75
2023/08/03 03:29:17;;;;;;;6.00;5.50;;;;;;;22.57;58.45;100496.59;5010873;28;20598;-75
2023/08/03 03:31:42;;;;;;;6.35;5.75;;;;;;;22.75;58.14;100498.13;5010917;28;20445;-75
2023/08/03 03:34:07;;;;;;;6.47;5.77;;;;;;;22.87;57.50;100503.38;5011193;28;20391;-76
2023/08/03 03:36:33;;;;;;;6.20;5.60;;;;;;;22.99;57.14;100519.41;5011322;28;20376;-76
2023/08/03 03:38:58;;;;;;;6.13;5.55;;;;;;;23.05;57.36;100518.44;5015016;28;20489;-75
2023/08/03 03:41:24;;;;;;;6.10;5.50;;;;;;;23.09;57.01;100520.34;5015191;28;20399;-74
2023/08/03 03:43:49;;;;;;;8.67;5.50;;;;;;;23.13;57.08;100522.53;5014665;28;20379;-75
2023/08/03 03:46:15;;;;;;;9.10;6.15;;;;;;;23.16;56.90;100525.53;5002585;28;20568;-75
2023/08/03 03:48:40;;;;;;;10.03;5.47;;;;;;;23.10;57.10;100529.25;5000012;28;21863;-77
2023/08/03 03:51:06;;;;;;;7.13;5.20;;;;;;;23.03;57.12;100526.75;5001442;28;20435;-74
2023/08/03 03:53:32;;;;;;;6.25;5.05;;;;;;;23.02;56.96;100518.91;5002542;28;20494;-75
2023/08/03 03:55:57;;;;;;;6.70;5.00;;;;;;;22.97;57.02;100516.97;5002851;28;20496;-75
2023/08/03 03:58:23;;;;;;;5.83;4.80;;;;;;;22.96;56.75;100528.03;5000220;28;20437;-74
2023/08/03 04:00:48;;;;;;;5.67;5.10;;;;;;;23.05;56.80;100531.94;5019304;28;20396;-74
2023/08/03 04:03:14;;;;;;;6.50;5.28;;;;;;;23.17;56.71;100521.75;5000666;28;20400;-74
2023/08/03 04:05:39;;;;;;;6.63;5.30;;;;;;;23.24;56.59;100527.75;4999608;28;20878;-75
2023/08/03 04:08:05;;;;;;;7.70;5.70;;;;;;;23.29;56.79;100540.50;5001266;28;20498;-75
2023/08/03 04:10:31;;;;;;;10.70;6.32;;;;;;;23.41;56.99;100541.16;4998280;28;20408;-75
2023/08/03 04:12:57;;;;;;;17.38;6.78;;;;;;;23.57;56.72;100541.22;5006099;28;20450;-76
2023/08/03 04:15:23;;;;;;;7.60;6.80;;;;;;;23.62;57.05;100541.25;5018594;28;20491;-75
2023/08/03 04:17:48;;;;;;;7.93;6.43;;;;;;;23.67;56.95;100542.09;5026819;28;20388;-75
2023/08/03 04:20:15;;;;;;;9.18;6.95;;;;;;;23.68;57.30;100537.53;5014569;28;20879;-76
2023/08/03 04:22:41;;;;;;;12.40;6.60;;;;;;;23.84;57.06;100536.56;5021534;28;20707;-76
2023/08/03 04:25:07;;;;;;;7.93;6.32;;;;;;;23.99;56.99;100543.13;5023156;28;20847;-76
2023/08/03 04:27:32;;;;;;;8.32;6.50;;;;;;;24.15;56.74;100547.53;5022739;28;20848;-76
2023/08/03 04:29:58;;;;;;;16.00;6.77;;;;;;;24.27;56.68;100558.13;5021469;28;20417;-74
2023/08/03 04:32:23;;;;;;;7.27;6.57;;;;;;;24.41;56.13;100563.88;5021468;28;20412;-74
2023/08/03 04:34:49;;;;;;;8.90;6.63;;;;;;;24.26;56.04;100561.13;5022379;28;20968;-75
2023/08/03 04:37:14;;;;;;;10.03;6.43;;;;;;;24.14;56.28;100554.03;5023246;28;20395;-75
2023/08/03 04:39:39;;;;;;;9.63;6.70;;;;;;;24.14;56.43;100555.91;5020239;28;20395;-75
2023/08/03 04:42:05;;;;;;;11.30;7.20;;;;;;;24.15;55.88;100554.84;5012583;28;20400;-76
2023/08/03 04:44:31;;;;;;;11.75;7.63;;;;;;;24.14;55.91;100567.56;5014182;28;20383;-76
2023/08/03 04:46:56;;;;;;;13.97;7.87;;;;;;;24.22;55.85;100566.25;5013100;28;20480;-75
2023/08/03 04:49:22;;;;;;;12.50;7.20;;;;;;;24.34;55.66;100568.72;5010918;28;20887;-74
2023/08/03 04:51:51;;;;;;;10.57;7.50;;;;;;;24.38;55.06;100564.41;5012768;28;20467;-74
2023/08/03 04:54:17;;;;;;;10.70;7.40;;;;;;;24.46;55.24;100572.03;5013058;28;21143;-73
2023/08/03 04:56:42;;;;;;;10.43;7.27;;;;;;;24.70;54.90;100568.84;5013364;28;20380;-74
2023/08/03 04:59:07;;;;;;;11.38;7.53;;;;;;;24.94;54.05;100569.19;5013195;28;20395;-74
2023/08/03 05:01:33;;;;;;;11.98;8.15;;;;;;;24.77;54.14;100581.06;5013341;28;20462;-74
2023/08/03 05:04:00;;;;;;;12.00;8.60;;;;;;;24.55;54.88;100572.34;5011999;28;20376;-74
2023/08/03 05:06:26;;;;;;;9.80;8.05;;;;;;;24.65;54.65;100577.81;5011440;28;20382;-74
2023/08/03 05:08:52;;;;;;;11.85;8.20;;;;;;;24.89;54.27;100583.53;5011601;28;20471;-73
2023/08/03 05:11:17;;;;;;;9.33;7.77;;;;;;;24.96;54.05;100580.56;5011003;28;20447;-73
2023/08/03 05:13:43;;;;;;;9.68;7.50;;;;;;;25.05;53.90;100591.69;5011140;28;20400;-74
2023/08/03 05:16:08;;;;;;;9.03;7.60;;;;;;;25.14;53.87;100595.50;5011099;28;20894;-74
2023/08/03 05:18:34;;;;;;;9.10;7.60;;;;;;;25.25;53.65;100594.44;5012532;28;20380;-73
2023/08/03 05:20:59;;;;;;;11.52;7.20;;;;;;;25.26;53.43;100596.06;5011798;28;20394;-73
2023/08/03 05:23:25;;;;;;;8.87;7.37;;;;;;;25.29;53.56;100605.56;5012778;28;20734;-74
2023/08/03 05:25:57;;;;;;;9.83;7.00;;;;;;;25.22;53.55;100603.09;5012910;28;20372;-73
2023/08/03 05:28:24;;;;;;;8.25;6.80;;;;;;;25.21;53.70;100603.34;5012984;28;20372;-73
2023/08/03 05:30:50;;;;;;;8.35;7.10;;;;;;;25.20;53.49;100610.69;5013001;28;20418;-73
2023/08/03 05:33:15;;;;;;;7.20;6.50;;;;;;;25.10;53.51;100610.66;5012647;28;20491;-73
2023/08/03 05:35:41;;;;;;;7.18;6.47;;;;;;;25.24;53.40;100611.78;5013151;28;20384;-73
2023/08/03 05:38:07;;;;;;;8.30;6.93;;;;;;;25.24;53.30;100613.69;5013038;28;20912;-73
2023/08/03 05:40:32;;;;;;;10.18;6.70;;;;;;;25.19;53.04;100614.47;5013052;28;20867;-74
2023/08/03 05:42:58;;;;;;;8.40;6.87;;;;;;;25.23;53.23;100607.44;5012113;28;20454;-73
2023/08/03 05:45:34;;;;;;;7.05;6.32;;;;;;;25.27;53.20;100619.41;5012943;28;20868;-73
2023/08/03 05:48:00;;;;;;;7.70;6.90;;;;;;;25.10;53.28;100619.66;5012368;28;20372;-74
2023/08/03 05:50:26;;;;;;;7.57;6.88;;;;;;;25.03;53.60;100618.25;5012411;28;20721;-74
2023/08/03 05:52:52;;;;;;;8.23;7.33;;;;;;;25.10;53.37;100619.66;5012543;28;20396;-74
2023/08/03 05:55:18;;;;;;;7.70;6.72;;;;;;;25.14;53.21;100620.72;5013042;28;20763;-74
2023/08/03 05:57:44;;;;;;;9.70;7.20;;;;;;;25.33;52.82;100612.06;5012366;28;20415;-73
2023/08/03 06:00:18;;;;;;;7.87;7.10;;;;;;;25.50;52.37;100619.97;5018403;28;20384;-74
2023/08/03 06:02:45;;;;;;;7.60;6.83;;;;;;;25.75;52.00;100617.22;5013401;28;20393;-74
2023/08/03 06:05:35;;;;;;;7.93;7.13;;;;;;;25.83;51.67;100602.25;5018762;28;20378;-73
2023/08/03 06:08:01;;;;;;;8.10;7.10;;;;;;;26.00;51.28;100612.03;4998887;28;20370;-74
2023/08/03 06:10:27;;;;;;;7.60;6.90;;;;;;;26.09;51.16;100604.94;5024001;28;20384;-73
2023/08/03 06:12:52;;;;;;;7.82;6.82;;;;;;;26.22;50.99;100604.34;5012758;28;20495;-73
2023/08/03 06:15:20;;;;;;;7.77;6.97;;;;;;;26.41;50.56;100603.72;5011278;28;20376;-73
2023/08/03 06:17:45;;;;;;;7.90;6.97;;;;;;;26.72;49.86;100607.13;5010875;28;20387;-74
2023/08/03 06:20:14;;;;;;;8.18;6.88;;;;;;;26.95;49.57;100610.25;5011874;28;21192;-73
2023/08/03 06:22:40;;;;;;;8.02;7.22;;;;;;;27.20;48.57;100601.91;5014218;28;20376;-74
2023/08/03 06:25:08;;;;;;;8.63;7.18;;;;;;;27.12;48.86;100596.25;5015437;28;20883;-73
2023/08/03 06:27:34;;;;;;;8.30;7.07;;;;;;;27.19;48.57;100594.84;5027965;28;20450;-74
2023/08/03 06:29:59;;;;;;;7.97;6.70;;;;;;;27.26;48.16;100600.81;5023870;28;20422;-74
2023/08/03 06:32:29;;;;;;;7.37;6.67;;;;;;;27.31;48.13;100605.38;5017926;28;20414;-74
2023/08/03 06:34:56;;;;;;;7.47;6.60;;;;;;;27.36;47.85;100607.28;5011392;28;20414;-73
2023/08/03 06:37:21;;;;;;;8.60;7.00;;;;;;;27.50;47.76;100608.22;5011456;28;20410;-75
2023/08/03 06:39:50;;;;;;;7.28;6.43;;;;;;;27.75;47.01;100599.00;5010443;28;20869;-74
2023/08/03 06:42:16;;;;;;;7.03;6.32;;;;;;;27.87;46.94;100611.41;5011051;28;20440;-74
2023/08/03 06:44:41;;;;;;;9.48;6.70;;;;;;;27.94;46.75;100601.81;5009969;28;20372;-73
2023/08/03 06:47:07;;;;;;;7.20;6.20;;;;;;;28.25;45.96;100597.94;5011538;28;20443;-74
2023/08/03 06:49:32;;;;;;;9.33;6.27;;;;;;;28.51;45.83;100588.31;5012028;28;20386;-73
2023/08/03 06:51:58;;;;;;;7.32;6.15;;;;;;;28.64;45.35;100586.00;5011853;28;20392;-73
2023/08/03 06:54:23;;;;;;;10.07;6.53;;;;;;;28.62;45.14;100589.03;5010976;28;20478;-74
2023/08/03 06:56:49;;;;;;;12.60;6.73;;;;;;;28.81;45.42;100589.03;5010999;28;20396;-74
2023/08/03 06:59:20;;;;;;;8.37;6.60;;;;;;;29.10;44.88;100579.81;5005375;28;20381;-74
2023/08/03 07:01:48;;;;;;;9.73;6.90;;;;;;;29.15;44.85;100590.69;5009958;28;20459;-74
2023/08/03 07:04:13;;;;;;;7.55;5.70;;;;;;;28.76;44.01;100587.19;5016084;28;20461;-75
2023/08/03 07:06:39;;;;;;;8.07;5.80;;;;;;;28.73;44.54;100587.75;5011552;28;20467;-75
2023/08/03 07:09:04;;;;;;;6.70;5.90;;;;;;;28.92;44.03;100587.75;5012636;28;20391;-74
2023/08/03 07:11:31;;;;;;;6.83;5.70;;;;;;;29.20;43.58;100587.88;5012585;28;20722;-76
2023/08/03 07:13:56;;;;;;;7.63;6.53;;;;;;;29.39;43.54;100582.38;5015117;28;20415;-75
2023/08/03 07:16:23;;;;;;;7.10;6.30;;;;;;;29.54;43.61;100586.75;5015000;28;20466;-75
2023/08/03 07:18:48;;;;;;;9.18;6.53;;;;;;;29.65;43.76;100584.66;5021456;28;20459;-75
2023/08/03 07:21:14;;;;;;;6.75;6.05;;;;;;;29.95;43.08;100586.03;5015275;28;20478;-76
2023/08/03 07:23:39;;;;;;;6.70;6.00;;;;;;;30.11;42.92;100573.66;5021267;28;20387;-76
2023/08/03 07:26:16;;;;;;;7.75;6.07;;;;;;;30.14;42.89;100582.38;5017901;28;20461;-75
2023/08/03 07:28:42;;;;;;;7.20;5.80;;;;;;;30.28;42.93;100580.44;5010734;28;20386;-75
2023/08/03 07:31:14;;;;;;;6.85;6.10;;;;;;;30.28;43.19;100588.63;5020005;28;20729;-77
2023/08/03 07:33:39;;;;;;;8.75;6.40;;;;;;;30.34;43.03;100578.41;5024205;28;20406;-75
2023/08/03 07:36:05;;;;;;;8.50;6.30;;;;;;;30.50;42.50;100574.22;5021144;28;20399;-75
2023/08/03 07:38:30;;;;;;;7.27;6.20;;;;;;;30.53;42.57;100572.81;5022855;28;20995;-75
2023/08/03 07:40:56;;;;;;;8.00;5.90;;;;;;;30.52;42.64;100571.19;5011253;28;20404;-75
2023/08/03 07:43:21;;;;;;;6.95;6.07;;;;;;;30.52;42.25;100574.72;5008698;28;20443;-75
2023/08/03 07:45:48;;;;;;;7.20;5.40;;;;;;;30.63;41.82;100569.84;5011204;28;20403;-76
2023/08/03 07:48:13;;;;;;;6.70;5.72;;;;;;;30.70;41.45;100578.44;5010417;28;20927;-75
2023/08/03 07:50:38;;;;;;;6.03;4.45;;;;;;;30.81;39.63;100574.34;5018406;28;20418;-76
2023/08/03 07:53:04;;;;;;;4.30;3.83;;;;;;;30.97;38.10;100572.09;5014910;28;20870;-75
2023/08/03 07:55:33;;;;;;;4.80;4.40;;;;;;;31.06;37.76;100577.59;5016238;28;21060;-76
2023/08/03 07:57:58;;;;;;;4.43;4.03;;;;;;;31.10;38.08;100567.66;5012748;28;20520;-76
2023/08/03 08:00:25;;;;;;;4.77;4.27;;;;;;;31.13;37.60;100569.75;5020481;28;20417;-76
2023/08/03 08:02:50;;;;;;;5.60;3.70;;;;;;;31.12;37.57;100568.16;5020064;28;20386;-76
2023/08/03 08:05:16;;;;;;;4.40;4.00;;;;;;;31.23;37.59;100568.72;5014182;28;20464;-75
2023/08/03 08:07:42;;;;;;;4.55;4.15;;;;;;;31.24;38.02;100578.53;5020628;28;20394;-75
2023/08/03 08:10:11;;;;;;;7.82;5.50;;;;;;;31.34;37.81;100564.59;5017828;28;20410;-75
2023/08/03 08:12:37;;;;;;;5.78;5.28;;;;;;;31.54;37.89;100570.69;5018185;28;20425;-75
2023/08/03 08:15:03;;;;;;;8.32;5.85;;;;;;;31.62;37.85;100565.25;5021140;28;20451;-75
2023/08/03 08:17:28;;;;;;;6.30;5.70;;;;;;;31.72;38.12;100566.88;5019354;28;20461;-75
2023/08/03 08:19:56;;;;;;;7.90;5.60;;;;;;;31.78;37.76;100564.81;5016370;28;20388;-76
2023/08/03 08:22:22;;;;;;;7.03;5.00;;;;;;;31.87;37.48;100557.41;5017526;28;20388;-76
2023/08/03 08:24:47;;;;;;;7.10;5.83;;;;;;;31.53;37.14;100561.66;5020723;28;20464;-76
2023/08/03 08:27:15;;;;;;;7.20;5.80;;;;;;;31.32;37.59;100555.06;5015289;28;20390;-75
2023/08/03 08:29:41;;;;;;;8.20;5.70;;;;;;;31.57;38.08;100565.38;5020838;28;20763;-75
2023/08/03 08:32:07;;;;;;;9.50;6.23;;;;;;;31.87;37.24;100553.88;5020161;28;20433;-76
2023/08/03 08:34:32;;;;;;;6.35;5.63;;;;;;;31.58;37.42;100561.50;5022303;28;20441;-75
2023/08/03 08:36:58;;;;;;;6.00;5.40;;;;;;;31.49;37.69;100552.44;5021726;28;20885;-74
2023/08/03 08:39:23;;;;;;;7.87;5.60;;;;;;;31.51;37.64;100552.13;5015540;28;20435;-75
2023/08/03 08:41:49;;;;;;;6.53;5.87;;;;;;;31.77;37.96;100549.50;5009414;28;20392;-76
2023/08/03 08:44:15;;;;;;;5.82;5.32;;;;;;;31.99;37.62;100543.91;5019666;28;20391;-77
2023/08/03 08:46:42;;;;;;;6.38;5.18;;;;;;;32.07;37.17;100555.25;5023884;28;20930;-76
2023/08/03 08:49:08;;;;;;;6.10;5.10;;;;;;;32.16;36.82;100554.16;5019974;28;20883;-75
2023/08/03 08:51:35;;;;;;;6.70;5.20;;;;;;;32.29;36.89;100549.66;5019625;28;20411;-76
2023/08/03 08:54:01;;;;;;;5.67;5.13;;;;;;;32.10;36.62;100551.88;5017738;28;20410;-76
2023/08/03 08:56:26;;;;;;;5.50;4.90;;;;;;;32.23;36.61;100547.38;5015180;28;20699;-76
2023/08/03 08:58:52;;;;;;;5.90;5.30;;;;;;;32.32;36.87;100540.78;5009147;28;20514;-74
2023/08/03 09:01:17;;;;;;;6.32;5.18;;;;;;;32.39;36.87;100543.03;5012771;28;20820;-75
2023/08/03 09:03:48;;;;;;;6.22;5.10;;;;;;;32.56;36.15;100534.03;5010267;28;20461;-75
2023/08/03 09:06:13;;;;;;;8.25;5.25;;;;;;;32.75;36.37;100530.97;5012304;28;20488;-74
2023/08/03 09:08:50;;;;;;;8.13;5.15;;;;;;;32.86;35.81;100531.44;5012756;28;20399;-75
2023/08/03 09:11:16;;;;;;;6.63;5.10;;;;;;;32.93;35.02;100529.78;5012398;28;20427;-75
2023/08/03 09:13:41;;;;;;;5.65;4.93;;;;;;;32.56;35.38;100534.81;5011618;28;20510;-76
2023/08/03 09:16:22;;;;;;;6.22;5.07;;;;;;;32.72;35.20;100528.88;5027548;28;20758;-76
2023/08/03 09:18:47;;;;;;;5.32;4.80;;;;;;;32.86;34.82;100531.44;5011445;28;20407;-74
2023/08/03 09:21:15;;;;;;;5.90;5.30;;;;;;;32.87;34.46;100528.38;5011429;28;20419;-76
2023/08/03 09:23:42;;;;;;;6.47;5.43;;;;;;;32.81;34.94;100517.88;5012735;28;20475;-75
2023/08/03 09:26:08;;;;;;;6.20;5.37;;;;;;;33.07;35.24;100520.56;5014133;28;20871;-75
2023/08/03 09:28:38;;;;;;;6.30;5.20;;;;;;;33.16;35.16;100517.84;5012938;28;20384;-76
2023/08/03 09:31:05;;;;;;;5.78;4.90;;;;;;;33.27;34.51;100514.41;5013266;28;20395;-75
2023/08/03 09:33:32;;;;;;;5.28;4.78;;;;;;;33.34;34.17;100517.44;5012587;28;20757;-75
2023/08/03 09:36:10;;;;;;;6.13;5.00;;;;;;;33.46;34.42;100513.22;5012540;28;20368;-76
2023/08/03 09:38:39;;;;;;;6.75;4.95;;;;;;;33.57;34.70;100514.44;5012486;28;20801;-75
2023/08/03 09:41:05;;;;;;;5.75;4.80;;;;;;;33.53;33.85;100508.81;5013177;28;20421;-76
2023/08/03 09:43:31;;;;;;;5.85;4.63;;;;;;;33.57;34.08;100514.44;5013396;28;20375;-76
2023/08/03 09:45:57;;;;;;;5.60;4.67;;;;;;;33.69;33.94;100513.75;5013635;28;20396;-75
2023/08/03 09:48:25;;;;;;;6.17;4.67;;;;;;;33.79;33.87;100507.09;5012669;28;20859;-75
2023/08/03 09:50:53;;;;;;;5.78;4.63;;;;;;;33.85;33.24;100511.25;5012299;28;20391;-75
2023/08/03 09:53:25;;;;;;;5.20;4.70;;;;;;;34.01;32.92;100514.22;5012314;28;21279;-75
2023/08/03 09:55:58;;;;;;;5.13;4.47;;;;;;;34.09;32.29;100513.38;5012400;28;20380;-75
2023/08/03 09:58:28;;;;;;;4.78;4.38;;;;;;;34.07;31.85;100512.91;5012844;28;20395;-75
2023/08/03 10:00:57;;;;;;;5.05;4.55;;;;;;;34.18;32.34;100516.91;5013071;28;20379;-76
2023/08/03 10:03:23;;;;;;;6.67;4.00;;;;;;;34.23;31.61;100511.19;5014034;28;20438;-76
2023/08/03 10:05:51;;;;;;;5.57;4.03;;;;;;;34.22;31.18;100515.09;5013467;28;20462;-76
2023/08/03 10:08:30;;;;;;;6.38;4.20;;;;;;;34.22;31.74;100511.53;5013387;28;20384;-77
2023/08/03 10:11:03;;;;;;;5.32;4.40;;;;;;;34.28;31.25;100507.44;5013958;28;20384;-76
2023/08/03 10:13:33;;;;;;;5.00;4.50;;;;;;;34.27;31.46;100508.59;5012299;28;20408;-75
2023/08/03 10:16:01;;;;;;;5.78;4.35;;;;;;;34.12;31.38;100504.44;5014160;28;20713;-78
2023/08/03 10:18:28;;;;;;;4.63;4.20;;;;;;;34.02;31.12;100497.41;5013813;28;20387;-76
2023/08/03 10:20:54;;;;;;;5.80;4.13;;;;;;;34.31;30.99;100492.22;5013972;28;20384;-75
2023/08/03 10:23:21;;;;;;;5.53;4.23;;;;;;;34.38;31.18;100490.53;5014656;28;20384;-76
2023/08/03 10:25:53;;;;;;;4.70;4.30;;;;;;;34.45;31.60;100487.22;5013875;28;20445;-76
2023/08/03 10:28:26;;;;;;;4.90;4.50;;;;;;;34.62;31.57;100487.06;5013064;28;20384;-75
2023/08/03 10:31:07;;;;;;;4.65;4.15;;;;;;;34.57;31.37;100492.75;5012338;28;20412;-74
2023/08/03 10:33:51;;;;;;;4.68;4.20;;;;;;;34.69;31.32;100492.03;5011814;28;20738;-75
2023/08/03 10:36:28;;;;;;;4.90;4.50;;;;;;;34.80;31.12;100484.97;5012602;28;20557;-76
2023/08/03 10:38:57;;;;;;;5.38;4.40;;;;;;;34.88;30.52;100491.53;5012594;28;20443;-75
2023/08/03 10:41:23;;;;;;;5.07;3.87;;;;;;;35.01;30.81;100482.16;5011552;28;20396;-75
2023/08/03 10:44:12;;;;;;;5.03;4.38;;;;;;;35.08;30.74;100480.78;5028115;28;20390;-75
2023/08/03 10:46:42;;;;;;;5.28;4.35;;;;;;;34.70;30.15;100482.66;5010720;28;20396;-77
2023/08/03 10:49:20;;;;;;;5.55;4.50;;;;;;;34.61;30.53;100476.38;5009144;28;20392;-76
2023/08/03 10:52:12;;;;;;;4.88;4.20;;;;;;;34.48;30.72;100472.78;5020059;28;20565;-76
2023/08/03 10:54:38;;;;;;;4.40;4.00;;;;;;;34.64;30.87;100476.50;5004706;28;20431;-75
2023/08/03 10:57:05;;;;;;;6.40;4.50;;;;;;;34.78;30.47;100467.97;5002195;28;20799;-75
2023/08/03 10:59:55;;;;;;;5.90;4.40;;;;;;;34.99;30.87;100461.63;5003110;28;20398;-76
2023/08/03 11:02:25;;;;;;;5.80;4.27;;;;;;;35.11;30.38;100464.34;5001739;28;20567;-77
2023/08/03 11:04:53;;;;;;;7.00;3.83;;;;;;;35.07;29.97;100466.19;5002694;28;20401;-76
2023/08/03 11:07:23;;;;;;;4.93;4.20;;;;;;;34.93;30.01;100465.72;5004143;28;20408;-76
2023/08/03 11:09:52;;;;;;;9.20;4.35;;;;;;;34.88;30.44;100465.94;5005896;28;20446;-76
2023/08/03 11:12:18;;;;;;;4.43;4.00;;;;;;;34.74;30.61;100458.78;4997345;28;20495;-77
2023/08/03 11:14:46;;;;;;;4.53;4.13;;;;;;;34.67;30.48;100462.06;5010045;28;20479;-75
2023/08/03 11:17:15;;;;;;;5.60;4.60;;;;;;;34.92;30.88;100459.41;5010979;28;20430;-76
2023/08/03 11:19:42;;;;;;;5.40;4.43;;;;;;;34.90;30.54;100453.44;5011753;28;20733;-76
2023/08/03 11:22:10;;;;;;;5.85;4.40;;;;;;;34.98;30.59;100457.25;5027992;28;20399;-75